Pagina principală
METAR-TAF:

METAR-TAF

Aeroporturi :

Independence, Kansas, Statele Unite ale Americii

Latitudine: 37-09-30N, longitudine: 095-46-42W, elevație: 251 m

Observații meteo curente

Raportul a fost făcut în urmă cu 22 de minute, la 01:15 UTC
Vânt 9 kt de la Nord
Temperatură 22°C
Umiditate 65%
Presiune 1008 hPa
Vizibilitate: 16.1 km
Cer senin

METAR: KIDP 220115Z AUTO 36009KT 10SM CLR 22/15 A2977 RMK AO2 T02160148

Ora: 20:37 (01:37 UTC)


TAF: lipsă

Observații și prognoze meteo pentru peste 4.000 de aeroporturi (rapoarte METAR și TAF).

Stațiile disponibile sunt reprezentate pe hartă prin puncte galbene și roșii.

Țineți indicatorul mouse-ului pe punctul dorit pentru a vedea denumirea stației.

Apoi, faceți clic pentru a vedea observațiile și prognozele meteorologice.

Pentru a schimba harta: Pentru mărire, faceți clic pe butoanele verzi cu cruce neagră; pentru micșorare, pe butonul verde cu o liniuță; pentru hărți învecinate, pe săgețile verzi.


METAR-TAF: